Terminal Aerodrome Forecast
Issued by NWS Pendleton, OR

Current Version | Previous Version | Text Only | Print | Product List | Glossary On
Versions: 1 2 3 4 5 6 7 8 9 10 11 12 13
035
FTUS46 KPDT 261132
TAFPDT
TAF
KPDT 261132Z 2612/2712 23010G20KT P6SM SCT090
     FM261800 27018G28KT P6SM SCT060 BKN200
     FM270400 27018G28KT P6SM BKN060=

USA.gov is the U.S. government's official web portal to all federal, state and local government web resources and services.